createdAt,value
2018-06-11T00:00:49.987Z,7.17
2018-06-11T00:03:02.371Z,9.20
2018-06-11T00:05:14.813Z,6.93
2018-06-11T00:07:27.162Z,7.97
2018-06-11T00:09:39.723Z,8.47
2018-06-11T00:11:52.193Z,7.63
2018-06-11T00:14:04.793Z,7.37
2018-06-11T00:16:17.240Z,7.03
2018-06-11T00:18:29.594Z,7.50
2018-06-11T00:20:42.070Z,7.40
2018-06-11T00:22:54.481Z,7.50
2018-06-11T00:25:06.842Z,7.77
2018-06-11T00:27:19.221Z,8.10
2018-06-11T00:29:31.681Z,9.27
2018-06-11T00:31:44.034Z,8.80
2018-06-11T00:33:56.370Z,7.20
2018-06-11T00:36:08.758Z,7.90
2018-06-11T00:38:21.133Z,8.40
2018-06-11T00:40:36.617Z,9.30
2018-06-11T00:42:49.051Z,6.70
2018-06-11T00:45:01.516Z,9.57
2018-06-11T00:47:13.962Z,9.97
2018-06-11T00:49:26.346Z,7.37
2018-06-11T00:51:38.725Z,7.80
2018-06-11T00:53:51.091Z,8.97
2018-06-11T00:56:07.177Z,8.63
2018-06-11T00:58:19.736Z,7.90
2018-06-11T01:00:32.165Z,7.50
2018-06-11T01:02:44.518Z,7.93
2018-06-11T01:04:56.898Z,9.27
2018-06-11T01:07:09.310Z,8.47
2018-06-11T01:09:21.738Z,6.67
2018-06-11T01:11:34.187Z,8.67
2018-06-11T01:13:46.546Z,9.80
2018-06-11T01:15:58.987Z,7.90
2018-06-11T01:18:11.416Z,9.43
2018-06-11T01:20:23.804Z,8.43
2018-06-11T01:22:36.147Z,8.73
2018-06-11T01:24:48.603Z,8.10
2018-06-11T01:27:01.078Z,10.07
2018-06-11T01:29:13.763Z,8.13
2018-06-11T01:31:26.210Z,8.90
2018-06-11T01:33:38.574Z,8.77
2018-06-11T01:35:50.967Z,9.63
2018-06-11T01:38:03.345Z,8.50
2018-06-11T01:40:15.960Z,9.40
2018-06-11T01:42:28.344Z,8.77
2018-06-11T01:44:40.759Z,9.40
2018-06-11T01:46:53.164Z,10.47
2018-06-11T01:49:05.589Z,9.53
2018-06-11T01:51:18.031Z,8.83
2018-06-11T01:53:30.467Z,8.47
2018-06-11T01:55:42.951Z,9.27
2018-06-11T01:57:55.343Z,11.07
2018-06-11T02:00:07.793Z,8.77
2018-06-11T02:02:20.299Z,8.80
2018-06-11T02:04:32.685Z,9.37
2018-06-11T02:06:45.143Z,9.70
2018-06-11T02:08:57.530Z,10.03
2018-06-11T02:11:09.965Z,9.50
2018-06-11T02:13:22.382Z,8.07
2018-06-11T02:15:34.782Z,9.33
2018-06-11T02:17:47.155Z,8.97
2018-06-11T02:19:59.559Z,9.97
2018-06-11T02:22:12.083Z,9.47
2018-06-11T02:24:24.493Z,10.23
2018-06-11T02:26:36.902Z,9.87
2018-06-11T02:28:49.297Z,8.27
2018-06-11T02:31:01.774Z,10.23
2018-06-11T02:33:14.188Z,8.63
2018-06-11T02:35:26.606Z,8.87
2018-06-11T02:37:39.044Z,8.57
2018-06-11T02:39:51.409Z,11.87
2018-06-11T02:42:03.979Z,9.17
2018-06-11T02:44:16.467Z,9.37
2018-06-11T02:46:28.827Z,9.43
2018-06-11T02:48:41.308Z,7.90
2018-06-11T02:50:53.667Z,9.27
2018-06-11T02:53:06.265Z,10.70
2018-06-11T02:55:18.631Z,9.53
2018-06-11T02:57:31.110Z,10.93
2018-06-11T02:59:43.558Z,10.17
2018-06-11T03:01:55.939Z,10.07
2018-06-11T03:04:08.393Z,9.57
2018-06-11T03:06:20.801Z,8.73
2018-06-11T03:08:33.206Z,8.57
2018-06-11T03:10:45.583Z,9.83
2018-06-11T03:12:58.044Z,8.97
2018-06-11T03:15:10.393Z,10.50
2018-06-11T03:17:22.985Z,11.77
2018-06-11T03:19:35.399Z,10.40
2018-06-11T03:21:47.747Z,11.27
2018-06-11T03:24:00.090Z,9.83
2018-06-11T03:26:12.542Z,11.27
2018-06-11T03:28:24.950Z,9.70
2018-06-11T03:30:37.362Z,12.00
2018-06-11T03:32:49.733Z,8.57
2018-06-11T03:35:02.179Z,9.73
2018-06-11T03:37:14.662Z,9.30
2018-06-11T03:39:27.056Z,9.03
2018-06-11T03:41:39.430Z,9.60
2018-06-11T03:43:51.955Z,10.13
2018-06-11T03:46:04.443Z,8.40
2018-06-11T03:48:16.924Z,11.20
2018-06-11T03:50:29.373Z,12.37
2018-06-11T03:52:41.835Z,11.57
2018-06-11T03:54:54.253Z,11.77
2018-06-11T03:57:06.750Z,11.20
2018-06-11T03:59:19.115Z,11.93
2018-06-11T04:01:31.547Z,9.23
2018-06-11T04:03:43.946Z,12.50
2018-06-11T04:05:56.369Z,10.40
2018-06-11T04:08:08.758Z,8.07
2018-06-11T04:10:21.158Z,8.10
2018-06-11T04:12:33.637Z,9.43
2018-06-11T04:14:46.171Z,9.57
2018-06-11T04:16:58.545Z,9.90
2018-06-11T04:19:11.038Z,8.90
2018-06-11T04:21:23.390Z,10.27
2018-06-11T04:23:35.840Z,9.70
2018-06-11T04:25:48.327Z,9.63
2018-06-11T04:28:00.714Z,11.77
2018-06-11T04:30:14.088Z,9.47
2018-06-11T04:32:26.451Z,9.60
2018-06-11T04:34:39.019Z,8.53
2018-06-11T04:36:51.402Z,11.20
2018-06-11T04:39:05.332Z,9.47
2018-06-11T04:41:17.691Z,10.93
2018-06-11T04:43:30.259Z,12.17
2018-06-11T04:45:42.639Z,12.10
2018-06-11T04:47:55.031Z,12.53
2018-06-11T04:50:07.611Z,10.63
2018-06-11T04:52:19.970Z,10.93
2018-06-11T04:54:32.650Z,10.17
2018-06-11T04:56:45.051Z,11.33
2018-06-11T04:58:57.386Z,11.20
2018-06-11T05:01:09.812Z,9.07
2018-06-11T05:03:22.202Z,9.87
2018-06-11T05:05:34.623Z,8.57
2018-06-11T05:07:47.031Z,11.53
2018-06-11T05:09:59.455Z,9.03
2018-06-11T05:12:11.855Z,10.30
2018-06-11T05:14:24.339Z,9.73
2018-06-11T05:16:36.755Z,12.23
2018-06-11T05:18:49.171Z,13.20
2018-06-11T05:21:01.700Z,11.10
2018-06-11T05:23:14.123Z,11.73
2018-06-11T05:25:26.566Z,11.60
2018-06-11T05:27:39.018Z,10.97
2018-06-11T05:29:51.358Z,10.87
2018-06-11T05:32:03.929Z,10.50
2018-06-11T05:34:16.478Z,9.20
2018-06-11T05:36:28.878Z,11.60
2018-06-11T05:38:41.262Z,11.53
2018-06-11T05:40:53.590Z,11.67
2018-06-11T05:43:06.098Z,12.70
2018-06-11T05:45:18.453Z,9.73
2018-06-11T05:47:30.859Z,10.27
2018-06-11T05:49:43.306Z,11.47
2018-06-11T05:51:55.727Z,11.37
2018-06-11T05:54:08.302Z,11.90
2018-06-11T05:56:20.682Z,10.57
2018-06-11T05:58:33.170Z,11.50
2018-06-11T06:00:45.562Z,12.00
2018-06-11T06:02:57.996Z,11.80
2018-06-11T06:05:10.423Z,12.93
2018-06-11T06:07:22.797Z,13.10
2018-06-11T06:09:35.226Z,12.67
2018-06-11T06:11:47.616Z,11.57
2018-06-11T06:13:59.997Z,10.67
2018-06-11T06:16:12.487Z,12.27
2018-06-11T06:18:24.875Z,9.50
2018-06-11T06:20:37.339Z,11.60
2018-06-11T06:22:49.975Z,9.67
2018-06-11T06:25:02.390Z,11.43
2018-06-11T06:27:14.848Z,11.10
2018-06-11T06:29:27.274Z,10.90
2018-06-11T06:31:39.806Z,10.63
2018-06-11T06:33:52.215Z,9.57
2018-06-11T06:36:04.758Z,9.43
2018-06-11T06:38:17.163Z,10.93
2018-06-11T06:40:29.594Z,12.73
2018-06-11T06:42:41.942Z,9.10
2018-06-11T06:44:54.326Z,9.83
2018-06-11T06:47:06.762Z,10.43
2018-06-11T06:49:19.173Z,9.93
2018-06-11T06:51:31.618Z,11.00
2018-06-11T06:53:44.086Z,8.77
2018-06-11T06:55:56.495Z,11.33
2018-06-11T06:58:08.965Z,10.80
2018-06-11T07:00:21.572Z,9.60
2018-06-11T07:02:33.946Z,11.27
2018-06-11T07:04:46.350Z,12.93
2018-06-11T07:06:58.816Z,10.90
2018-06-11T07:09:11.197Z,11.23
2018-06-11T07:11:23.617Z,10.90
2018-06-11T07:13:36.001Z,11.10
2018-06-11T07:15:48.426Z,10.47
2018-06-11T07:18:00.910Z,11.97
2018-06-11T07:20:13.376Z,9.40
2018-06-11T07:22:25.746Z,10.50
2018-06-11T07:24:38.360Z,10.63
2018-06-11T07:26:50.834Z,12.73
2018-06-11T07:29:03.335Z,11.93
2018-06-11T07:31:15.912Z,11.47
2018-06-11T07:33:28.255Z,11.50
2018-06-11T07:35:40.675Z,11.20
2018-06-11T07:37:53.199Z,11.87
2018-06-11T07:40:05.604Z,10.30
2018-06-11T07:42:17.962Z,13.50
2018-06-11T07:44:30.412Z,12.33
2018-06-11T07:46:42.899Z,9.77
2018-06-11T07:48:55.947Z,9.00
2018-06-11T07:51:08.327Z,11.80
2018-06-11T07:53:20.817Z,10.40
2018-06-11T07:55:33.192Z,12.27
2018-06-11T07:57:45.699Z,11.13
2018-06-11T07:59:58.195Z,11.30
2018-06-11T08:02:10.556Z,12.07
2018-06-11T08:04:23.071Z,10.60
2018-06-11T08:06:35.495Z,11.43
2018-06-11T08:08:47.976Z,10.57
2018-06-11T08:11:00.427Z,10.57
2018-06-11T08:13:12.817Z,9.20
2018-06-11T08:15:25.341Z,10.70
2018-06-11T08:17:37.760Z,10.20
2018-06-11T08:19:50.172Z,10.03
2018-06-11T08:22:02.667Z,9.73
2018-06-11T08:24:15.052Z,10.20
2018-06-11T08:26:27.741Z,8.53
2018-06-11T08:28:40.315Z,10.73
2018-06-11T08:30:52.766Z,9.10
2018-06-11T08:33:05.335Z,10.50
2018-06-11T08:35:17.732Z,10.10
2018-06-11T08:37:30.189Z,9.87
2018-06-11T08:39:42.596Z,10.30
2018-06-11T08:41:54.958Z,10.23
2018-06-11T08:44:07.362Z,10.63
2018-06-11T08:46:19.726Z,10.10
2018-06-11T08:48:32.114Z,9.43
2018-06-11T08:50:44.739Z,9.30
2018-06-11T08:52:57.154Z,10.47
2018-06-11T08:55:09.532Z,9.13
2018-06-11T08:57:22.062Z,9.13
2018-06-11T08:59:34.554Z,10.77
2018-06-11T09:01:47.054Z,9.53
2018-06-11T09:03:59.554Z,8.27
2018-06-11T09:06:12.099Z,9.43
2018-06-11T09:08:24.526Z,10.03
2018-06-11T09:10:37.013Z,9.63
2018-06-11T09:12:49.569Z,9.10
2018-06-11T09:15:01.999Z,8.50
2018-06-11T09:17:14.399Z,9.90
2018-06-11T09:19:26.810Z,7.90
2018-06-11T09:21:39.473Z,9.27
2018-06-11T09:23:52.067Z,9.33
2018-06-11T09:26:04.558Z,9.97
2018-06-11T09:28:16.982Z,8.13
2018-06-11T09:30:29.367Z,8.90
2018-06-11T09:32:41.848Z,9.27
2018-06-11T09:34:54.437Z,9.27
2018-06-11T09:37:07.021Z,9.20
2018-06-11T09:39:19.633Z,9.03
2018-06-11T09:41:32.579Z,9.07
2018-06-11T09:43:45.063Z,7.80
2018-06-11T09:45:57.609Z,10.03
2018-06-11T09:48:10.018Z,8.93
2018-06-11T09:50:22.430Z,8.80
2018-06-11T09:52:34.779Z,9.97
2018-06-11T09:54:47.223Z,9.53
2018-06-11T09:56:59.632Z,9.30
2018-06-11T09:59:12.063Z,9.60
2018-06-11T10:01:24.398Z,9.00
2018-06-11T10:03:36.971Z,9.30
2018-06-11T10:05:49.377Z,8.53
2018-06-11T10:08:01.773Z,8.40
2018-06-11T10:10:15.194Z,8.17
2018-06-11T10:12:27.637Z,8.47
2018-06-11T10:14:40.025Z,8.60
2018-06-11T10:16:52.403Z,9.07
2018-06-11T10:19:05.164Z,6.70
2018-06-11T10:21:17.655Z,8.37
2018-06-11T10:23:30.117Z,7.43
2018-06-11T10:25:42.497Z,9.07
2018-06-11T10:27:57.033Z,7.43
2018-06-11T10:30:11.040Z,7.97
2018-06-11T10:32:23.428Z,7.20
2018-06-11T10:34:35.774Z,8.27
2018-06-11T10:36:48.201Z,7.30
2018-06-11T10:39:00.573Z,7.83
2018-06-11T10:41:12.929Z,8.20
2018-06-11T10:43:25.306Z,7.60
2018-06-11T10:45:37.786Z,9.43
2018-06-11T10:47:50.126Z,8.30
2018-06-11T10:50:02.576Z,8.03
2018-06-11T10:52:15.000Z,8.33
2018-06-11T10:54:27.326Z,7.03
2018-06-11T10:56:39.754Z,6.83
2018-06-11T10:58:52.242Z,6.97
2018-06-11T11:01:04.729Z,8.30
2018-06-11T11:03:17.161Z,8.17
2018-06-11T11:05:29.586Z,8.53
2018-06-11T11:07:42.007Z,7.40
2018-06-11T11:09:54.406Z,7.40
2018-06-11T11:12:06.786Z,7.77
2018-06-11T11:14:21.801Z,7.90
2018-06-11T11:16:34.330Z,10.27
2018-06-11T11:18:46.739Z,8.97
2018-06-11T11:20:59.280Z,8.43
2018-06-11T11:23:11.731Z,7.10
2018-06-11T11:25:24.210Z,7.73
2018-06-11T11:27:36.590Z,7.17
2018-06-11T11:29:48.911Z,8.70
2018-06-11T11:32:01.352Z,8.27
2018-06-11T11:34:13.949Z,8.90
2018-06-11T11:36:26.410Z,8.80
2018-06-11T11:38:38.794Z,7.87
2018-06-11T11:40:51.492Z,7.83
2018-06-11T11:43:03.972Z,9.30
2018-06-11T11:45:16.334Z,7.97
2018-06-11T11:47:28.666Z,8.13
2018-06-11T11:49:41.109Z,7.67
2018-06-11T11:51:53.546Z,8.93
2018-06-11T11:54:06.758Z,9.00
2018-06-11T11:56:19.182Z,8.13
2018-06-11T11:58:31.636Z,8.00
2018-06-11T12:00:44.046Z,8.97
2018-06-11T12:02:56.499Z,8.60
2018-06-11T12:05:08.896Z,7.93
2018-06-11T12:07:21.305Z,7.70
2018-06-11T12:09:33.878Z,9.00
2018-06-11T12:11:47.067Z,9.03
2018-06-11T12:13:59.450Z,7.07
2018-06-11T12:16:11.822Z,8.30
2018-06-11T12:18:24.185Z,9.10
2018-06-11T12:20:36.750Z,9.27
2018-06-11T12:22:49.252Z,8.50
2018-06-11T12:25:01.677Z,7.03
2018-06-11T12:27:14.120Z,9.43
2018-06-11T12:29:26.548Z,10.07
2018-06-11T12:31:38.929Z,9.67
2018-06-11T12:33:51.278Z,7.83
2018-06-11T12:36:03.968Z,6.93
2018-06-11T12:38:16.371Z,9.43
2018-06-11T12:40:28.771Z,8.87
2018-06-11T12:42:41.162Z,8.73
2018-06-11T12:44:53.576Z,10.47
2018-06-11T12:47:06.151Z,7.43
2018-06-11T12:49:18.622Z,7.80
2018-06-11T12:51:31.634Z,7.53
2018-06-11T12:53:44.060Z,9.03
2018-06-11T12:55:56.513Z,9.73
2018-06-11T12:58:08.989Z,7.90
2018-06-11T13:00:21.466Z,11.23
2018-06-11T13:02:33.897Z,7.77
2018-06-11T13:04:46.269Z,7.83
2018-06-11T13:06:58.811Z,10.30
2018-06-11T13:09:11.194Z,9.07
2018-06-11T13:11:23.795Z,11.10
2018-06-11T13:13:36.186Z,11.13
2018-06-11T13:15:48.543Z,8.93
2018-06-11T13:18:00.902Z,7.87
2018-06-11T13:20:13.243Z,9.93
2018-06-11T13:22:25.668Z,10.70
2018-06-11T13:24:38.199Z,10.13
2018-06-11T13:26:50.570Z,11.27
2018-06-11T13:29:03.110Z,7.30
2018-06-11T13:31:15.452Z,9.30
2018-06-11T13:33:27.920Z,9.33
2018-06-11T13:35:40.316Z,12.47
2018-06-11T13:37:52.757Z,14.00
2018-06-11T13:40:05.169Z,10.87
2018-06-11T13:42:17.519Z,10.37
2018-06-11T13:44:29.982Z,9.67
2018-06-11T13:46:42.385Z,10.67
2018-06-11T13:48:54.845Z,12.27
2018-06-11T13:51:07.383Z,9.00
2018-06-11T13:53:19.738Z,9.80
2018-06-11T13:55:32.142Z,8.67
2018-06-11T13:57:44.577Z,8.27
2018-06-11T13:59:57.095Z,11.40
2018-06-11T14:02:09.605Z,7.50
2018-06-11T14:04:21.991Z,8.60
2018-06-11T14:06:34.338Z,10.33
2018-06-11T14:08:46.726Z,6.80
2018-06-11T14:10:59.187Z,7.83
2018-06-11T14:13:11.543Z,6.37
2018-06-11T14:15:23.923Z,6.77
2018-06-11T14:17:36.300Z,6.73
2018-06-11T14:19:48.660Z,6.77
2018-06-11T14:22:00.994Z,9.00
2018-06-11T14:24:13.361Z,7.00
2018-06-11T14:26:26.295Z,7.37
2018-06-11T14:28:38.759Z,6.73
2018-06-11T14:30:51.097Z,9.23
2018-06-11T14:33:03.527Z,6.50
2018-06-11T14:35:15.893Z,9.33
2018-06-11T14:37:28.396Z,7.17
2018-06-11T14:39:40.770Z,8.70
2018-06-11T14:41:53.151Z,8.30
2018-06-11T14:44:05.483Z,9.87
2018-06-11T14:46:17.903Z,9.30
2018-06-11T14:48:30.571Z,8.00
2018-06-11T14:50:42.935Z,7.67
2018-06-11T14:52:55.322Z,8.97
2018-06-11T14:55:07.702Z,8.97
2018-06-11T14:57:20.117Z,9.63
2018-06-11T14:59:32.526Z,11.00
2018-06-11T15:01:44.859Z,8.53
2018-06-11T15:03:57.228Z,8.23
2018-06-11T15:06:09.590Z,9.53
2018-06-11T15:08:21.975Z,8.50
2018-06-11T15:10:34.339Z,8.37
2018-06-11T15:12:46.745Z,9.10
2018-06-11T15:15:00.080Z,9.87
2018-06-11T15:17:12.514Z,9.17
2018-06-11T15:19:24.922Z,9.13
2018-06-11T15:21:37.376Z,10.37
2018-06-11T15:23:49.725Z,9.30
2018-06-11T15:26:02.097Z,9.87
2018-06-11T15:28:14.433Z,10.07
2018-06-11T15:30:26.842Z,10.13
2018-06-11T15:32:39.220Z,11.77
2018-06-11T15:34:51.605Z,11.77
2018-06-11T15:37:04.035Z,11.97
2018-06-11T15:39:16.446Z,14.37
2018-06-11T15:41:28.910Z,14.70
2018-06-11T15:43:41.258Z,14.27
2018-06-11T15:45:53.645Z,12.90
2018-06-11T15:48:06.007Z,16.17
2018-06-11T15:50:18.530Z,16.27
2018-06-11T15:52:30.920Z,14.40
2018-06-11T15:54:43.297Z,13.20
2018-06-11T15:56:55.764Z,12.67
2018-06-11T15:59:08.135Z,11.23
2018-06-11T16:01:20.622Z,12.33
2018-06-11T16:03:32.986Z,12.20
2018-06-11T16:05:45.346Z,10.33
2018-06-11T16:07:57.693Z,12.37
2018-06-11T16:10:10.191Z,14.10
2018-06-11T16:12:22.557Z,12.40
2018-06-11T16:14:34.940Z,12.00
2018-06-11T16:16:47.522Z,10.07
2018-06-11T16:19:00.035Z,14.47
2018-06-11T16:21:12.659Z,8.17
2018-06-11T16:23:25.210Z,7.53
2018-06-11T16:25:38.116Z,8.87
2018-06-11T16:27:53.000Z,11.40
2018-06-11T16:30:05.471Z,4.97
2018-06-11T16:32:18.919Z,8.97
2018-06-11T16:34:32.254Z,7.53
2018-06-11T16:36:45.510Z,8.97
2018-06-11T16:38:57.929Z,8.70
2018-06-11T16:41:10.402Z,7.77
2018-06-11T16:43:22.944Z,7.90
2018-06-11T16:45:35.322Z,7.17
2018-06-11T16:47:48.807Z,7.93
2018-06-11T16:50:01.189Z,7.77
2018-06-11T16:52:13.585Z,9.27
2018-06-11T16:54:25.975Z,10.33
2018-06-11T16:56:38.367Z,7.87
2018-06-11T16:58:53.814Z,7.60
2018-06-11T17:01:06.965Z,6.93
2018-06-11T17:03:19.371Z,8.37
2018-06-11T17:05:31.805Z,6.83
2018-06-11T17:07:44.223Z,6.70
2018-06-11T17:09:56.635Z,5.53
2018-06-11T17:12:09.156Z,6.57
2018-06-11T17:14:22.178Z,8.23
2018-06-11T17:16:35.078Z,9.10
2018-06-11T17:18:47.478Z,5.53
2018-06-11T17:20:59.958Z,5.13
2018-06-11T17:23:12.342Z,10.07
2018-06-11T17:25:24.746Z,6.43
2018-06-11T17:27:37.179Z,6.03
2018-06-11T17:29:49.522Z,9.53
2018-06-11T17:32:02.146Z,6.70
2018-06-11T17:34:14.600Z,7.43
2018-06-11T17:36:27.279Z,6.33
2018-06-11T17:38:39.763Z,6.70
2018-06-11T17:40:52.181Z,8.20
2018-06-11T17:43:04.552Z,6.50
2018-06-11T17:45:16.987Z,6.80
2018-06-11T17:47:29.443Z,7.80
2018-06-11T17:49:41.845Z,6.10
2018-06-11T17:51:54.242Z,6.93
2018-06-11T17:54:06.630Z,7.70
2018-06-11T17:56:19.071Z,9.33
2018-06-11T17:58:31.594Z,6.30
2018-06-11T18:00:43.964Z,5.53
2018-06-11T18:02:56.330Z,6.23
2018-06-11T18:05:08.766Z,4.90
2018-06-11T18:07:21.219Z,4.97
2018-06-11T18:09:33.614Z,5.37
2018-06-11T18:11:46.010Z,4.17
2018-06-11T18:13:58.401Z,3.77
2018-06-11T18:16:10.797Z,5.03
2018-06-11T18:18:23.171Z,3.77
2018-06-11T18:20:35.620Z,4.13
2018-06-11T18:22:48.001Z,3.27
2018-06-11T18:25:00.394Z,4.77
2018-06-11T18:27:12.834Z,4.63
2018-06-11T18:29:25.193Z,6.07
2018-06-11T18:31:37.654Z,3.60
2018-06-11T18:33:50.018Z,5.00
2018-06-11T18:36:02.570Z,3.67
2018-06-11T18:38:14.979Z,5.93
2018-06-11T18:40:27.383Z,4.77
2018-06-11T18:42:39.874Z,7.50
2018-06-11T18:44:52.218Z,6.83
2018-06-11T18:47:04.804Z,6.60
2018-06-11T18:49:17.477Z,6.77
2018-06-11T18:51:29.868Z,5.40
2018-06-11T18:53:42.334Z,6.93
2018-06-11T18:55:54.761Z,6.53
2018-06-11T18:58:07.454Z,4.80
2018-06-11T19:00:19.811Z,5.60
2018-06-11T19:02:32.213Z,5.63
2018-06-11T19:04:44.722Z,4.37
2018-06-11T19:06:57.109Z,6.93
2018-06-11T19:09:09.531Z,4.50
2018-06-11T19:11:21.930Z,5.27
2018-06-11T19:13:34.361Z,6.50
2018-06-11T19:15:46.812Z,5.27
2018-06-11T19:17:59.199Z,4.67
2018-06-11T19:20:11.644Z,4.30
2018-06-11T19:22:24.179Z,7.87
2018-06-11T19:24:36.687Z,6.33
2018-06-11T19:26:49.068Z,3.93
2018-06-11T19:29:01.526Z,5.70
2018-06-11T19:31:13.953Z,5.40
2018-06-11T19:33:26.349Z,4.97
2018-06-11T19:35:38.816Z,5.33
2018-06-11T19:37:51.161Z,7.10
2018-06-11T19:40:03.562Z,4.90
2018-06-11T19:42:15.985Z,5.00
2018-06-11T19:44:28.297Z,5.47
2018-06-11T19:46:40.771Z,5.27
2018-06-11T19:48:53.181Z,5.87
2018-06-11T19:51:05.606Z,5.70
2018-06-11T19:53:17.943Z,6.10
2018-06-11T19:55:30.531Z,6.20
2018-06-11T19:57:42.902Z,6.47
2018-06-11T19:59:55.377Z,6.90
2018-06-11T20:02:07.753Z,6.40
2018-06-11T20:04:20.449Z,6.27
2018-06-11T20:06:32.806Z,7.53
2018-06-11T20:08:45.209Z,6.10
2018-06-11T20:10:57.621Z,6.47
2018-06-11T20:13:10.241Z,6.87
2018-06-11T20:15:22.635Z,5.90
2018-06-11T20:17:35.054Z,6.00
2018-06-11T20:19:47.454Z,6.27
2018-06-11T20:21:59.866Z,7.23
2018-06-11T20:24:12.251Z,6.57
2018-06-11T20:26:24.675Z,5.80
2018-06-11T20:28:37.114Z,6.47
2018-06-11T20:30:49.544Z,5.87
2018-06-11T20:33:02.043Z,7.37
2018-06-11T20:35:14.459Z,6.77
2018-06-11T20:37:26.862Z,6.77
2018-06-11T20:39:39.338Z,6.03
2018-06-11T20:41:51.728Z,5.60
2018-06-11T20:44:04.178Z,5.80
2018-06-11T20:46:16.554Z,5.50
2018-06-11T20:48:28.963Z,6.43
2018-06-11T20:50:41.590Z,3.83
2018-06-11T20:52:53.974Z,4.57
2018-06-11T20:55:06.443Z,3.80
2018-06-11T20:57:18.859Z,5.13
2018-06-11T20:59:31.278Z,5.50
2018-06-11T21:01:43.678Z,5.73
2018-06-11T21:03:56.045Z,4.80
2018-06-11T21:06:08.402Z,5.07
2018-06-11T21:08:20.778Z,5.63
2018-06-11T21:10:33.243Z,7.87
2018-06-11T21:12:45.626Z,5.23
2018-06-11T21:14:58.020Z,6.87
2018-06-11T21:17:10.626Z,4.73
2018-06-11T21:19:22.954Z,5.77
2018-06-11T21:21:35.357Z,6.33
2018-06-11T21:23:47.837Z,5.60
2018-06-11T21:26:00.346Z,5.77
2018-06-11T21:28:12.729Z,6.10
2018-06-11T21:30:25.156Z,6.57
2018-06-11T21:32:37.599Z,7.23
2018-06-11T21:34:49.921Z,7.23
2018-06-11T21:37:02.336Z,6.43
2018-06-11T21:39:14.815Z,8.53
2018-06-11T21:41:27.164Z,6.93
2018-06-11T21:43:39.574Z,8.30
2018-06-11T21:45:51.989Z,8.07
2018-06-11T21:48:04.371Z,9.00
2018-06-11T21:50:16.757Z,10.20
2018-06-11T21:52:29.180Z,8.70
2018-06-11T21:54:41.582Z,8.83
2018-06-11T21:56:54.228Z,8.13
2018-06-11T21:59:06.648Z,6.50
2018-06-11T22:01:19.166Z,8.80
2018-06-11T22:03:31.721Z,6.87
2018-06-11T22:05:44.057Z,8.90
2018-06-11T22:07:56.490Z,8.13
2018-06-11T22:10:08.875Z,7.30
2018-06-11T22:12:21.372Z,5.97
2018-06-11T22:14:33.810Z,5.70
2018-06-11T22:16:46.207Z,8.33
2018-06-11T22:18:58.752Z,12.17
2018-06-11T22:21:11.191Z,10.90
2018-06-11T22:23:23.630Z,11.07
2018-06-11T22:25:35.939Z,11.90
2018-06-11T22:27:48.253Z,9.40
2018-06-11T22:30:00.794Z,8.87
2018-06-11T22:32:13.146Z,10.37
2018-06-11T22:34:25.480Z,15.33
2018-06-11T22:36:37.909Z,8.40
2018-06-11T22:38:50.443Z,11.23
2018-06-11T22:41:02.834Z,10.43
2018-06-11T22:43:15.196Z,9.23
2018-06-11T22:45:27.610Z,9.53
2018-06-11T22:47:39.970Z,8.77
2018-06-11T22:49:52.378Z,10.63
2018-06-11T22:52:04.724Z,10.60
2018-06-11T22:54:17.041Z,7.80
2018-06-11T22:56:29.387Z,10.67
2018-06-11T22:58:41.742Z,12.30
2018-06-11T23:00:54.117Z,9.77
2018-06-11T23:03:06.611Z,8.93
2018-06-11T23:05:18.945Z,9.00
2018-06-11T23:07:31.250Z,12.30
2018-06-11T23:09:43.674Z,11.33
2018-06-11T23:11:56.074Z,12.70
2018-06-11T23:14:08.451Z,10.73
2018-06-11T23:16:20.795Z,12.13
2018-06-11T23:18:33.146Z,10.60
2018-06-11T23:20:45.553Z,13.40
2018-06-11T23:22:57.990Z,8.70
2018-06-11T23:25:10.290Z,9.10
2018-06-11T23:27:22.718Z,7.90
2018-06-11T23:29:35.099Z,9.50
2018-06-11T23:31:47.202Z,7.87
2018-06-11T23:33:59.562Z,8.83
2018-06-11T23:36:11.935Z,5.23
2018-06-11T23:38:24.286Z,9.33
2018-06-11T23:40:36.631Z,8.93
2018-06-11T23:42:48.946Z,9.07
2018-06-11T23:45:01.418Z,9.80
2018-06-11T23:47:13.766Z,9.53
2018-06-11T23:49:26.124Z,14.13
2018-06-11T23:51:38.458Z,10.53
2018-06-11T23:53:50.814Z,10.57
2018-06-11T23:56:03.154Z,16.47
2018-06-11T23:58:15.515Z,11.77
